Terminal Aerodrome Forecast
Issued by NWS Pocatello, ID

Home | Current Version | Previous Version | Text Only | Print | Product List | Glossary On
Versions: 1 2 3 4 5 6 7 8 9 10 11 12 13
000
FTUS45 KPIH 051723
TAFBYI
TAF
KBYI 051723Z 0518/0618 25010KT P6SM -SHRA VCTS SCT040CB BKN160
     FM052200 20010KT P6SM VCTS FEW060CB BKN160
     FM060300 27010KT P6SM SCT090 BKN140
     FM060900 24010KT P6SM FEW025 SCT060 BKN100=

USA.gov is the U.S. government's official web portal to all federal, state and local government web resources and services.